DAL874 KBOI-KATL
Flight info
| Callsign | DAL874 |
|---|---|
| Flight time | N/A |
| Altitude | 35000 |
| Route | ROARR AMFAL OCS KD63W HUSQA KK51C WEITT KK42G MEMFS HUTCC KNSAW RUSSA GLAVN2 |
| Aircraft | B739/M-SDE2E3FGHIRWXY/LB1 |
Departure
| Time | 2026-05-04 22:54 |
|---|---|
| Airport | Boise Air Terminal/Gowen Field (KBOI) |
Arrival
| Time | N/A |
|---|---|
| Airport | Hartsfield Jackson Atlanta International Airport (KATL) |
| Time | Latitude | Longitude | Altitude | Speed | Heading |
|---|---|---|---|---|---|
| 2026-05-04 22:44 | 43.56715 | -116.21841 | 2880 ft | 0 kts | 292° |
| 2026-05-04 22:46 | 43.56714 | -116.21839 | 2880 ft | 2 kts | 292° |
| 2026-05-04 22:47 | 43.56704 | -116.21806 | 2880 ft | 4 kts | 292° |
| 2026-05-04 22:47 | 43.56696 | -116.21778 | 2880 ft | 4 kts | 277° |
| 2026-05-04 22:47 | 43.56701 | -116.21756 | 2880 ft | 4 kts | 194° |
| 2026-05-04 22:47 | 43.56726 | -116.21756 | 2880 ft | 4 kts | 175° |
| 2026-05-04 22:48 | 43.56732 | -116.21757 | 2880 ft | 0 kts | 175° |
| 2026-05-04 22:49 | 43.56732 | -116.21756 | 2880 ft | 0 kts | 175° |
| 2026-05-04 22:49 | 43.56721 | -116.21755 | 2880 ft | 3 kts | 175° |
| 2026-05-04 22:49 | 43.56678 | -116.21750 | 2881 ft | 9 kts | 175° |
| 2026-05-04 22:50 | 43.56591 | -116.21741 | 2880 ft | 15 kts | 175° |
| 2026-05-04 22:50 | 43.56488 | -116.21722 | 2880 ft | 15 kts | 159° |
| 2026-05-04 22:50 | 43.56433 | -116.21612 | 2880 ft | 14 kts | 113° |
| 2026-05-04 22:50 | 43.56395 | -116.21491 | 2880 ft | 14 kts | 113° |
| 2026-05-04 22:51 | 43.56353 | -116.21371 | 2881 ft | 14 kts | 118° |
| 2026-05-04 22:51 | 43.56308 | -116.21248 | 2881 ft | 16 kts | 115° |
| 2026-05-04 22:51 | 43.56263 | -116.21111 | 2881 ft | 15 kts | 114° |
| 2026-05-04 22:51 | 43.56220 | -116.20980 | 2883 ft | 15 kts | 114° |
| 2026-05-04 22:52 | 43.56168 | -116.20867 | 2881 ft | 14 kts | 161° |
| 2026-05-04 22:52 | 43.56076 | -116.20908 | 2881 ft | 15 kts | 206° |
| 2026-05-04 22:52 | 43.55976 | -116.20973 | 2880 ft | 16 kts | 203° |
| 2026-05-04 22:52 | 43.55920 | -116.21077 | 2880 ft | 15 kts | 280° |
| 2026-05-04 22:53 | 43.55961 | -116.21209 | 2880 ft | 16 kts | 295° |
| 2026-05-04 22:53 | 43.56064 | -116.21507 | 2880 ft | 65 kts | 295° |
| 2026-05-04 22:53 | 43.56345 | -116.22331 | 2879 ft | 123 kts | 295° |
| 2026-05-04 22:53 | 43.56780 | -116.23601 | 2883 ft | 168 kts | 295° |
| 2026-05-04 22:54 | 43.57298 | -116.25140 | 3102 ft | 178 kts | 296° |
| 2026-05-04 22:54 | 43.57843 | -116.26720 | 3687 ft | 187 kts | 296° |
| 2026-05-04 22:54 | 43.58266 | -116.28430 | 4171 ft | 203 kts | 282° |
| 2026-05-04 22:54 | 43.58407 | -116.30513 | 4246 ft | 230 kts | 270° |
| 2026-05-04 22:55 | 43.58017 | -116.32683 | 4447 ft | 253 kts | 242° |
| 2026-05-04 22:55 | 43.56779 | -116.34527 | 4463 ft | 275 kts | 212° |
| 2026-05-04 22:55 | 43.54966 | -116.35377 | 5149 ft | 280 kts | 184° |
| 2026-05-04 22:55 | 43.53063 | -116.34980 | 5920 ft | 281 kts | 156° |
| 2026-05-04 22:56 | 43.51484 | -116.33447 | 6617 ft | 283 kts | 128° |
| 2026-05-04 22:56 | 43.50511 | -116.31108 | 7319 ft | 284 kts | 109° |
| 2026-05-04 22:56 | 43.49887 | -116.28511 | 8043 ft | 287 kts | 106° |
| 2026-05-04 22:56 | 43.49310 | -116.25856 | 8756 ft | 291 kts | 105° |
| 2026-05-04 22:57 | 43.48735 | -116.23162 | 9515 ft | 295 kts | 105° |